createdAt,value
2022-12-08T00:01:23.873Z,97498.66
2022-12-08T00:03:51.693Z,97494.28
2022-12-08T00:06:37.055Z,97503.66
2022-12-08T00:09:22.051Z,97493.94
2022-12-08T00:11:49.582Z,97495.78
2022-12-08T00:14:16.286Z,97490.84
2022-12-08T00:16:43.175Z,97507.75
2022-12-08T00:19:10.282Z,97495.34
2022-12-08T00:21:36.855Z,97497.31
2022-12-08T00:24:03.757Z,97502.13
2022-12-08T00:26:30.583Z,97498.19
2022-12-08T00:28:57.531Z,97493.25
2022-12-08T00:31:24.179Z,97496.59
2022-12-08T00:33:50.904Z,97483.44
2022-12-08T00:36:17.542Z,97483.94
2022-12-08T00:38:45.057Z,97481.88
2022-12-08T00:41:17.402Z,97490.81
2022-12-08T00:43:44.354Z,97480.53
2022-12-08T00:46:12.212Z,97486.38
2022-12-08T00:48:39.607Z,97500.25
2022-12-08T00:51:06.323Z,97492.47
2022-12-08T00:53:32.995Z,97490.28
2022-12-08T00:55:59.718Z,97484.59
2022-12-08T00:58:26.476Z,97491.31
2022-12-08T01:00:53.302Z,97489.66
2022-12-08T01:03:20.051Z,97498.66
2022-12-08T01:05:46.744Z,97503.81
2022-12-08T01:08:13.466Z,97499.56
2022-12-08T01:10:40.822Z,97507.25
2022-12-08T01:13:07.561Z,97494.91
2022-12-08T01:15:34.263Z,97506.19
2022-12-08T01:18:01.033Z,97503.44
2022-12-08T01:20:27.583Z,97506.97
2022-12-08T01:22:54.348Z,97507.69
2022-12-08T01:25:21.279Z,97494.97
2022-12-08T01:27:48.358Z,97506.09
2022-12-08T01:30:15.038Z,97497.72
2022-12-08T01:32:41.846Z,97498.44
2022-12-08T01:35:08.673Z,97501.25
2022-12-08T01:37:35.365Z,97494.59
2022-12-08T01:40:02.408Z,97491.59
2022-12-08T01:42:30.798Z,97500.94
2022-12-08T01:45:03.003Z,97492.25
2022-12-08T01:47:41.770Z,97490.88
2022-12-08T01:50:11.616Z,97494.09
2022-12-08T01:52:46.736Z,97482.97
2022-12-08T01:55:20.437Z,97483.41
2022-12-08T01:57:54.636Z,97477.00
2022-12-08T02:00:22.873Z,97476.31
2022-12-08T02:02:57.472Z,97479.34
2022-12-08T02:05:27.360Z,97474.25
2022-12-08T02:07:55.729Z,97469.28
2022-12-08T02:10:24.577Z,97476.38
2022-12-08T02:12:53.978Z,97464.13
2022-12-08T02:15:43.016Z,97475.38
2022-12-08T02:18:19.297Z,97466.19
2022-12-08T02:20:57.128Z,97470.97
2022-12-08T02:23:35.784Z,97470.38
2022-12-08T02:26:27.492Z,97464.75
2022-12-08T02:29:13.353Z,97459.28
2022-12-08T02:32:07.662Z,97462.00
2022-12-08T02:34:37.756Z,97460.66
2022-12-08T02:37:27.729Z,97462.47
2022-12-08T02:40:06.961Z,97455.22
2022-12-08T02:42:42.897Z,97458.97
2022-12-08T02:45:33.992Z,97455.34
2022-12-08T02:48:00.852Z,97450.44
2022-12-08T02:50:27.961Z,97447.22
2022-12-08T02:52:55.049Z,97451.22
2022-12-08T02:55:32.002Z,97446.88
2022-12-08T02:58:13.595Z,97440.97
2022-12-08T03:00:57.383Z,97439.75
2022-12-08T03:03:44.660Z,97442.69
2022-12-08T03:06:33.379Z,97433.78
2022-12-08T03:09:08.425Z,97425.47
2022-12-08T03:11:47.491Z,97433.28
2022-12-08T03:14:17.340Z,97426.31
2022-12-08T03:16:48.384Z,97421.38
2022-12-08T03:19:25.606Z,97426.53
2022-12-08T03:22:02.771Z,97422.13
2022-12-08T03:24:41.822Z,97426.09
2022-12-08T03:27:16.703Z,97416.03
2022-12-08T03:29:43.670Z,97410.31
2022-12-08T03:32:22.469Z,97415.78
2022-12-08T03:34:51.593Z,97410.38
2022-12-08T03:37:18.486Z,97409.00
2022-12-08T03:39:45.133Z,97409.09
2022-12-08T03:42:12.153Z,97409.38
2022-12-08T03:44:38.860Z,97413.44
2022-12-08T03:47:05.526Z,97408.31
2022-12-08T03:49:32.307Z,97405.16
2022-12-08T03:51:58.867Z,97401.59
2022-12-08T03:54:25.589Z,97399.22
2022-12-08T03:56:52.446Z,97404.28
2022-12-08T03:59:19.270Z,97411.09
2022-12-08T04:01:45.962Z,97402.16
2022-12-08T04:04:12.617Z,97405.09
2022-12-08T04:06:39.233Z,97405.66
2022-12-08T04:09:06.040Z,97407.03
2022-12-08T04:11:32.728Z,97395.47
2022-12-08T04:13:59.353Z,97397.19
2022-12-08T04:16:27.889Z,97399.38
2022-12-08T04:18:55.115Z,97400.53
2022-12-08T04:21:21.970Z,97397.53
2022-12-08T04:23:48.574Z,97399.69
2022-12-08T04:26:15.847Z,97398.44
2022-12-08T04:28:42.758Z,97385.22
2022-12-08T04:31:10.721Z,97390.56
2022-12-08T04:33:37.470Z,97385.22
2022-12-08T04:36:05.469Z,97389.88
2022-12-08T04:38:32.941Z,97385.31
2022-12-08T04:40:59.785Z,97392.66
2022-12-08T04:43:26.461Z,97386.19
2022-12-08T04:45:53.136Z,97377.84
2022-12-08T04:48:19.785Z,97383.78
2022-12-08T04:50:46.449Z,97388.13
2022-12-08T04:53:14.390Z,97381.44
2022-12-08T04:55:43.917Z,97378.41
2022-12-08T04:58:15.761Z,97370.44
2022-12-08T05:00:43.361Z,97372.84
2022-12-08T05:03:10.246Z,97369.03
2022-12-08T05:05:36.783Z,97372.94
2022-12-08T05:08:04.544Z,97368.19
2022-12-08T05:10:31.772Z,97369.47
2022-12-08T05:13:00.913Z,97365.25
2022-12-08T05:15:27.669Z,97365.84
2022-12-08T05:17:54.315Z,97358.34
2022-12-08T05:20:21.299Z,97358.56
2022-12-08T05:22:48.216Z,97375.09
2022-12-08T05:25:15.042Z,97373.22
2022-12-08T05:27:42.116Z,97361.94
2022-12-08T05:30:08.933Z,97373.31
2022-12-08T05:32:38.596Z,97369.66
2022-12-08T05:35:05.595Z,97358.75
2022-12-08T05:37:34.874Z,97362.38
2022-12-08T05:40:02.058Z,97359.13
2022-12-08T05:42:28.943Z,97358.47
2022-12-08T05:44:55.598Z,97360.41
2022-12-08T05:47:22.416Z,97346.28
2022-12-08T05:49:48.965Z,97356.56
2022-12-08T05:52:16.977Z,97359.88
2022-12-08T05:54:44.325Z,97360.22
2022-12-08T05:57:12.182Z,97353.69
2022-12-08T05:59:39.756Z,97359.66
2022-12-08T06:02:06.656Z,97355.56
2022-12-08T06:04:33.548Z,97344.19
2022-12-08T06:07:00.219Z,97357.53
2022-12-08T06:09:26.989Z,97356.75
2022-12-08T06:11:53.713Z,97355.22
2022-12-08T06:14:20.556Z,97359.22
2022-12-08T06:16:50.095Z,97355.91
2022-12-08T06:19:17.823Z,97352.38
2022-12-08T06:21:44.639Z,97355.63
2022-12-08T06:24:12.096Z,97368.47
2022-12-08T06:26:40.316Z,97361.91
2022-12-08T06:29:07.805Z,97373.13
2022-12-08T06:31:34.581Z,97365.41
2022-12-08T06:34:01.449Z,97353.50
2022-12-08T06:36:29.024Z,97375.84
2022-12-08T06:38:56.711Z,97362.75
2022-12-08T06:41:23.529Z,97374.66
2022-12-08T06:43:50.128Z,97362.22
2022-12-08T06:46:19.040Z,97372.97
2022-12-08T06:48:46.080Z,97375.44
2022-12-08T06:51:16.299Z,97366.00
2022-12-08T06:53:43.919Z,97376.47
2022-12-08T06:56:12.022Z,97371.78
2022-12-08T06:58:38.739Z,97372.50
2022-12-08T07:01:11.871Z,97379.50
2022-12-08T07:03:39.814Z,97380.16
2022-12-08T07:06:07.024Z,97381.09
2022-12-08T07:08:34.445Z,97374.00
2022-12-08T07:11:07.781Z,97373.88
2022-12-08T07:13:34.633Z,97376.34
2022-12-08T07:16:01.169Z,97381.47
2022-12-08T07:18:27.846Z,97377.28
2022-12-08T07:20:54.419Z,97378.72
2022-12-08T07:23:21.047Z,97371.50
2022-12-08T07:25:47.629Z,97368.38
2022-12-08T07:28:14.326Z,97358.88
2022-12-08T07:30:41.208Z,97372.59
2022-12-08T07:33:07.920Z,97372.13
2022-12-08T07:35:35.385Z,97371.03
2022-12-08T07:38:02.450Z,97367.88
2022-12-08T07:40:29.309Z,97359.66
2022-12-08T07:42:55.918Z,97376.72
2022-12-08T07:45:28.218Z,97374.50
2022-12-08T07:47:58.126Z,97372.63
2022-12-08T07:50:24.639Z,97382.03
2022-12-08T07:52:51.801Z,97381.00
2022-12-08T07:55:18.428Z,97382.28
2022-12-08T07:57:44.963Z,97384.19
2022-12-08T08:00:12.377Z,97385.22
2022-12-08T08:02:39.331Z,97382.47
2022-12-08T08:05:06.557Z,97379.13
2022-12-08T08:07:33.406Z,97391.13
2022-12-08T08:09:59.985Z,97393.63
2022-12-08T08:12:31.636Z,97392.84
2022-12-08T08:15:00.193Z,97384.94
2022-12-08T08:17:27.394Z,97384.09
2022-12-08T08:19:54.207Z,97390.81
2022-12-08T08:22:20.962Z,97387.75
2022-12-08T08:24:47.585Z,97384.28
2022-12-08T08:27:14.401Z,97391.31
2022-12-08T08:29:41.119Z,97388.16
2022-12-08T08:32:07.804Z,97384.16
2022-12-08T08:34:34.499Z,97389.78
2022-12-08T08:37:02.019Z,97383.00
2022-12-08T08:39:30.175Z,97385.75
2022-12-08T08:41:57.005Z,97384.25
2022-12-08T08:44:23.928Z,97383.03
2022-12-08T08:46:52.014Z,97389.47
2022-12-08T08:49:18.821Z,97390.50
2022-12-08T08:51:46.224Z,97384.75
2022-12-08T08:54:13.021Z,97384.84
2022-12-08T08:56:39.590Z,97382.75
2022-12-08T08:59:06.720Z,97376.53
2022-12-08T09:01:34.152Z,97384.09
2022-12-08T09:04:01.462Z,97388.44
2022-12-08T09:06:28.556Z,97375.25
2022-12-08T09:08:55.583Z,97394.56
2022-12-08T09:11:23.544Z,97383.38
2022-12-08T09:13:51.677Z,97385.34
2022-12-08T09:16:19.276Z,97389.78
2022-12-08T09:18:46.313Z,97381.72
2022-12-08T09:21:16.726Z,97382.44
2022-12-08T09:23:44.076Z,97382.28
2022-12-08T09:26:10.834Z,97373.88
2022-12-08T09:28:37.634Z,97388.66
2022-12-08T09:31:04.799Z,97376.69
2022-12-08T09:33:31.761Z,97364.66
2022-12-08T09:36:02.847Z,97373.38
2022-12-08T09:38:31.953Z,97377.00
2022-12-08T09:40:59.778Z,97378.50
2022-12-08T09:43:38.160Z,97360.47
2022-12-08T09:46:10.550Z,97368.41
2022-12-08T09:48:47.544Z,97357.50
2022-12-08T09:51:16.275Z,97356.16
2022-12-08T09:53:48.272Z,97350.66
2022-12-08T09:56:14.936Z,97346.97
2022-12-08T09:58:53.792Z,97349.56
2022-12-08T10:01:26.721Z,97347.22
2022-12-08T10:03:55.957Z,97343.66
2022-12-08T10:06:33.566Z,97344.44
2022-12-08T10:09:29.343Z,97342.38
2022-12-08T10:12:19.970Z,97345.00
2022-12-08T10:14:54.861Z,97347.19
2022-12-08T10:17:42.614Z,97346.72
2022-12-08T10:20:15.183Z,97342.84
2022-12-08T10:22:44.867Z,97334.25
2022-12-08T10:25:35.269Z,97328.91
2022-12-08T10:28:01.972Z,97332.56
2022-12-08T10:30:28.644Z,97327.91
2022-12-08T10:32:55.493Z,97321.56
2022-12-08T10:35:23.408Z,97323.03
2022-12-08T10:37:58.999Z,97315.59
2022-12-08T10:40:29.368Z,97308.41
2022-12-08T10:43:01.396Z,97296.66
2022-12-08T10:45:37.683Z,97305.31
2022-12-08T10:48:12.964Z,97299.66
2022-12-08T10:50:45.691Z,97287.31
2022-12-08T10:53:14.221Z,97294.84
2022-12-08T10:55:47.778Z,97289.72
2022-12-08T10:58:41.931Z,97283.47
2022-12-08T11:01:26.677Z,97291.22
2022-12-08T11:04:05.310Z,97285.78
2022-12-08T11:06:35.458Z,97284.09
2022-12-08T11:09:06.780Z,97287.50
2022-12-08T11:11:48.060Z,97275.06
2022-12-08T11:14:26.250Z,97281.59
2022-12-08T11:16:56.460Z,97272.97
2022-12-08T11:19:27.964Z,97285.25
2022-12-08T11:21:54.791Z,97276.75
2022-12-08T11:24:25.786Z,97273.94
2022-12-08T11:26:59.281Z,97275.56
2022-12-08T11:29:28.179Z,97272.72
2022-12-08T11:32:17.675Z,97273.03
2022-12-08T11:35:06.780Z,97272.66
2022-12-08T11:37:40.205Z,97268.16
2022-12-08T11:40:20.331Z,97269.66
2022-12-08T11:43:05.691Z,97263.94
2022-12-08T11:45:35.194Z,97265.63
2022-12-08T11:48:24.986Z,97250.88
2022-12-08T11:51:03.516Z,97252.69
2022-12-08T11:53:43.055Z,97251.16
2022-12-08T11:56:29.933Z,97251.50
2022-12-08T11:59:01.639Z,97245.34
2022-12-08T12:01:28.295Z,97245.16
2022-12-08T12:03:58.040Z,97238.69
2022-12-08T12:06:57.809Z,97245.97
2022-12-08T12:09:58.232Z,97240.00
2022-12-08T12:12:52.579Z,97239.06
2022-12-08T12:15:28.465Z,97242.25
2022-12-08T12:18:16.745Z,97238.28
2022-12-08T12:21:07.878Z,97238.53
2022-12-08T12:24:02.536Z,97231.72
2022-12-08T12:26:31.916Z,97235.47
2022-12-08T12:29:05.850Z,97235.69
2022-12-08T12:31:37.309Z,97228.50
2022-12-08T12:34:27.554Z,97239.94
2022-12-08T12:36:58.219Z,97228.88
2022-12-08T12:39:30.384Z,97230.34
2022-12-08T12:42:00.927Z,97235.66
2022-12-08T12:44:27.700Z,97231.28
2022-12-08T12:47:01.407Z,97234.16
2022-12-08T12:49:40.597Z,97231.38
2022-12-08T12:52:10.365Z,97231.84
2022-12-08T12:54:42.659Z,97225.97
2022-12-08T12:57:09.454Z,97230.69
2022-12-08T12:59:55.173Z,97223.94
2022-12-08T13:02:33.388Z,97210.31
2022-12-08T13:05:15.716Z,97209.63
2022-12-08T13:07:50.012Z,97208.84
2022-12-08T13:10:19.124Z,97217.34
2022-12-08T13:13:01.362Z,97205.16
2022-12-08T13:15:35.048Z,97200.25
2022-12-08T13:18:02.009Z,97199.41
2022-12-08T13:20:28.748Z,97204.88
2022-12-08T13:23:26.304Z,97208.13
2022-12-08T13:26:09.250Z,97212.16
2022-12-08T13:28:58.367Z,97206.47
2022-12-08T13:31:45.050Z,97205.81
2022-12-08T13:34:30.170Z,97212.63
2022-12-08T13:37:15.489Z,97203.09
2022-12-08T13:39:49.790Z,97199.84
2022-12-08T13:42:35.247Z,97204.00
2022-12-08T13:45:39.820Z,97199.56
2022-12-08T13:48:23.548Z,97191.22
2022-12-08T13:59:19.219Z,97199.78
2022-12-08T14:01:48.460Z,97199.88
2022-12-08T14:04:42.567Z,97204.09
2022-12-08T14:07:06.103Z,97200.66
2022-12-08T14:09:36.808Z,97206.22
2022-12-08T14:12:23.092Z,97203.28
2022-12-08T14:15:02.968Z,97195.75
2022-12-08T14:17:30.646Z,97203.63
2022-12-08T14:19:58.655Z,97201.91
2022-12-08T14:22:32.304Z,97203.56
2022-12-08T14:24:59.019Z,97203.78
2022-12-08T14:27:30.049Z,97201.88
2022-12-08T14:30:00.309Z,97199.69
2022-12-08T14:32:33.115Z,97202.94
2022-12-08T14:35:08.877Z,97203.16
2022-12-08T14:37:42.247Z,97202.34
2022-12-08T14:40:28.747Z,97208.56
2022-12-08T14:43:07.730Z,97212.13
2022-12-08T14:45:40.557Z,97203.72
2022-12-08T14:48:30.878Z,97205.13
2022-12-08T14:51:03.240Z,97203.03
2022-12-08T14:53:39.615Z,97205.44
2022-12-08T14:56:09.701Z,97192.28
2022-12-08T14:58:36.390Z,97198.16
2022-12-08T15:01:06.451Z,97197.31
2022-12-08T15:03:33.497Z,97202.16
2022-12-08T15:06:06.354Z,97210.53
2022-12-08T15:08:33.620Z,97207.97
2022-12-08T15:11:34.185Z,97208.88
2022-12-08T15:14:01.021Z,97212.34
2022-12-08T15:16:32.048Z,97219.69
2022-12-08T15:19:04.229Z,97215.50
2022-12-08T15:21:37.048Z,97213.69
2022-12-08T15:24:03.723Z,97208.00
2022-12-08T15:26:39.133Z,97203.66
2022-12-08T15:29:18.912Z,97214.53
2022-12-08T15:31:46.220Z,97204.72
2022-12-08T15:34:12.931Z,97211.63
2022-12-08T15:36:40.135Z,97207.59
2022-12-08T15:39:11.108Z,97207.72
2022-12-08T15:41:38.058Z,97208.44
2022-12-08T15:44:04.569Z,97215.50
2022-12-08T15:46:31.921Z,97209.50
2022-12-08T15:48:58.595Z,97209.63
2022-12-08T15:51:25.251Z,97207.56
2022-12-08T15:53:53.710Z,97203.03
2022-12-08T15:56:27.463Z,97208.78
2022-12-08T15:59:03.764Z,97200.91
2022-12-08T16:01:30.476Z,97212.13
2022-12-08T16:09:38.713Z,97211.13
2022-12-08T16:13:13.899Z,97215.63
2022-12-08T16:18:23.203Z,97209.94
2022-12-08T16:23:45.230Z,97211.03
2022-12-08T16:26:54.682Z,97217.13
2022-12-08T16:29:07.169Z,97208.75
2022-12-08T16:31:35.001Z,97211.38
2022-12-08T16:34:01.768Z,97209.25
2022-12-08T16:36:28.536Z,97212.94
2022-12-08T16:38:55.158Z,97209.72
2022-12-08T16:41:40.410Z,97215.13
2022-12-08T16:44:07.063Z,97224.69
2022-12-08T16:46:33.886Z,97220.28
2022-12-08T16:49:00.419Z,97224.16
2022-12-08T16:51:27.644Z,97226.56
2022-12-08T16:53:58.489Z,97233.47
2022-12-08T16:56:32.298Z,97225.56
2022-12-08T16:59:00.750Z,97227.34
2022-12-08T17:01:28.864Z,97220.22
2022-12-08T17:04:22.948Z,97222.00
2022-12-08T17:06:42.570Z,97226.91
2022-12-08T17:09:09.361Z,97225.19
2022-12-08T17:11:42.702Z,97219.13
2022-12-08T17:14:13.087Z,97221.28
2022-12-08T17:16:40.465Z,97222.09
2022-12-08T17:19:07.255Z,97215.97
2022-12-08T17:21:34.140Z,97220.41
2022-12-08T17:24:00.779Z,97217.94
2022-12-08T17:26:27.609Z,97214.72
2022-12-08T17:29:01.942Z,97218.56
2022-12-08T17:31:31.472Z,97217.44
2022-12-08T17:34:04.230Z,97218.41
2022-12-08T17:36:30.989Z,97220.94
2022-12-08T17:38:59.936Z,97225.00
2022-12-08T17:41:27.062Z,97227.16
2022-12-08T17:43:53.789Z,97226.28
2022-12-08T17:46:21.385Z,97221.88
2022-12-08T17:48:48.543Z,97220.06
2022-12-08T17:51:15.482Z,97220.69
2022-12-08T17:53:42.709Z,97219.31
2022-12-08T17:56:18.177Z,97229.91
2022-12-08T17:58:45.649Z,97234.06
2022-12-08T18:01:19.430Z,97230.72
2022-12-08T18:03:47.323Z,97229.56
2022-12-08T18:06:13.994Z,97239.56
2022-12-08T18:08:40.930Z,97232.88
2022-12-08T18:11:11.299Z,97233.25
2022-12-08T18:13:38.067Z,97231.66
2022-12-08T18:16:06.646Z,97217.75
2022-12-08T18:18:33.335Z,97224.50
2022-12-08T18:20:59.925Z,97229.00
2022-12-08T18:23:27.894Z,97225.03
2022-12-08T18:25:54.583Z,97215.16
2022-12-08T18:28:21.638Z,97223.69
2022-12-08T18:30:48.385Z,97215.34
2022-12-08T18:33:15.120Z,97219.81
2022-12-08T18:35:42.317Z,97217.28
2022-12-08T18:38:08.865Z,97219.25
2022-12-08T18:40:35.569Z,97205.72
2022-12-08T18:43:02.189Z,97203.13
2022-12-08T18:45:28.882Z,97199.34
2022-12-08T18:47:55.659Z,97209.78
2022-12-08T18:50:22.376Z,97210.75
2022-12-08T18:52:49.024Z,97204.66
2022-12-08T18:55:16.052Z,97200.09
2022-12-08T18:57:43.379Z,97193.56
2022-12-08T19:00:16.557Z,97205.03
2022-12-08T19:02:43.652Z,97206.22
2022-12-08T19:05:12.941Z,97201.53
2022-12-08T19:07:39.675Z,97204.06
2022-12-08T19:10:07.574Z,97201.25
2022-12-08T19:12:34.581Z,97204.56
2022-12-08T19:15:01.299Z,97200.97
2022-12-08T19:17:29.659Z,97210.00
2022-12-08T19:19:56.568Z,97206.84
2022-12-08T19:22:23.241Z,97199.38
2022-12-08T19:24:49.918Z,97198.09
2022-12-08T19:27:16.999Z,97203.38
2022-12-08T19:29:43.660Z,97201.59
2022-12-08T19:32:10.345Z,97197.22
2022-12-08T19:34:37.029Z,97191.84
2022-12-08T19:37:03.817Z,97199.00
2022-12-08T19:39:49.060Z,97200.13
2022-12-08T19:42:37.091Z,97207.66
2022-12-08T19:45:30.334Z,97201.47
2022-12-08T19:47:57.046Z,97204.75
2022-12-08T19:50:41.476Z,97193.75
2022-12-08T19:53:15.717Z,97201.75
2022-12-08T19:55:43.507Z,97197.50
2022-12-08T19:58:11.174Z,97199.41
2022-12-08T20:00:39.646Z,97193.31
2022-12-08T20:03:08.071Z,97189.34
2022-12-08T20:05:36.750Z,97187.75
2022-12-08T20:08:07.229Z,97185.09
2022-12-08T20:10:36.921Z,97197.16
2022-12-08T20:13:23.496Z,97193.53
2022-12-08T20:15:53.444Z,97193.06
2022-12-08T20:18:20.340Z,97199.38
2022-12-08T20:20:48.088Z,97190.66
2022-12-08T20:23:15.718Z,97196.13
2022-12-08T20:25:44.815Z,97188.91
2022-12-08T20:28:12.313Z,97195.88
2022-12-08T20:30:43.301Z,97195.56
2022-12-08T20:33:13.129Z,97198.13
2022-12-08T20:35:40.027Z,97199.28
2022-12-08T20:38:06.508Z,97197.91
2022-12-08T20:40:33.327Z,97199.47
2022-12-08T20:42:59.924Z,97209.31
2022-12-08T20:45:26.775Z,97201.88
2022-12-08T20:47:53.852Z,97208.00
2022-12-08T20:50:22.876Z,97203.56
2022-12-08T20:52:50.672Z,97215.41
2022-12-08T20:55:17.659Z,97210.13
2022-12-08T20:57:44.468Z,97207.09
2022-12-08T21:00:12.043Z,97203.34
2022-12-08T21:02:45.077Z,97204.53
2022-12-08T21:05:14.397Z,97207.88
2022-12-08T21:07:41.336Z,97207.72
2022-12-08T21:10:09.106Z,97203.84
2022-12-08T21:12:36.077Z,97197.97
2022-12-08T21:15:02.958Z,97207.50
2022-12-08T21:17:30.019Z,97203.63
2022-12-08T21:19:56.682Z,97197.81
2022-12-08T21:22:23.351Z,97202.69
2022-12-08T21:24:50.491Z,97200.38
2022-12-08T21:27:17.920Z,97199.59
2022-12-08T21:29:45.261Z,97196.34
2022-12-08T21:32:13.319Z,97197.19
2022-12-08T21:34:40.487Z,97191.50
2022-12-08T21:37:07.417Z,97195.22
2022-12-08T21:39:34.660Z,97190.34
2022-12-08T21:42:22.745Z,97193.16
2022-12-08T21:44:49.896Z,97194.69
2022-12-08T21:47:16.834Z,97198.88
2022-12-08T21:49:43.812Z,97198.50
2022-12-08T21:52:11.297Z,97197.47
2022-12-08T21:54:37.871Z,97196.69
2022-12-08T21:57:05.300Z,97193.16
2022-12-08T21:59:32.185Z,97197.63
2022-12-08T22:01:59.378Z,97192.47
2022-12-08T22:04:26.482Z,97184.19
2022-12-08T22:06:54.005Z,97197.78
2022-12-08T22:09:20.925Z,97198.34
2022-12-08T22:11:47.876Z,97196.94
2022-12-08T22:14:15.521Z,97195.41
2022-12-08T22:16:43.369Z,97194.75
2022-12-08T22:19:10.689Z,97201.38
2022-12-08T22:21:38.267Z,97206.91
2022-12-08T22:24:06.191Z,97197.38
2022-12-08T22:26:33.584Z,97208.00
2022-12-08T22:29:00.476Z,97209.06
2022-12-08T22:31:27.819Z,97214.47
2022-12-08T22:33:55.307Z,97212.41
2022-12-08T22:36:24.558Z,97213.63
2022-12-08T22:38:52.408Z,97218.66
2022-12-08T22:41:20.408Z,97212.09
2022-12-08T22:43:47.932Z,97225.00
2022-12-08T22:46:20.770Z,97225.09
2022-12-08T22:48:48.201Z,97225.13
2022-12-08T22:51:15.811Z,97223.13
2022-12-08T22:53:42.570Z,97230.69
2022-12-08T22:56:11.839Z,97229.94
2022-12-08T22:58:39.886Z,97233.03
2022-12-08T23:01:07.542Z,97234.25
2022-12-08T23:03:35.114Z,97228.84
2022-12-08T23:06:02.486Z,97243.13
2022-12-08T23:08:30.165Z,97234.06
2022-12-08T23:10:57.947Z,97235.19
2022-12-08T23:13:24.910Z,97232.00
2022-12-08T23:15:51.429Z,97235.47
2022-12-08T23:18:19.326Z,97230.78
2022-12-08T23:20:47.170Z,97228.22
2022-12-08T23:23:14.263Z,97228.94
2022-12-08T23:25:41.795Z,97230.13
2022-12-08T23:28:09.405Z,97228.84
2022-12-08T23:30:36.506Z,97225.28
2022-12-08T23:33:03.237Z,97218.84
2022-12-08T23:35:29.931Z,97220.28
2022-12-08T23:37:56.775Z,97220.72
2022-12-08T23:40:23.408Z,97215.47
2022-12-08T23:42:50.086Z,97216.06
2022-12-08T23:45:16.838Z,97219.50
2022-12-08T23:47:43.702Z,97211.94
2022-12-08T23:50:11.227Z,97218.28
2022-12-08T23:52:39.897Z,97220.47
2022-12-08T23:55:07.839Z,97207.31
2022-12-08T23:57:38.602Z,97219.91
